Parksville, Canada
Current Conditions -  °F | °C
As of 9:00 PM on Thursday 23 Oct 2014 (Local Time) from CYCD Reporting Station
Light Fog Light Fog  
Wind Chill:   Ceiling: 21000
Heat Index:   Visibility: 20mi
Dew Point:   Wind: 2mph
Humidity: 100%   Direction: NA
Pressure: 29.91"   Gusts: NA
Location:  49.32°N, 124.31°W
Report Text: CYCD 240400Z VRB02KT 20SM MIFG FEW035 SCT110 BKN210 07/07 A2991 RMK SC1AC2CI4 LAST OBS/NEXT 241300 UTC SLP130
Loading
Personal Weather Stations






























Interactive Weather Map
Tropical Storm Tracking
New forecast layout! Learn more

10-Day Weather Forecast

Advertisements
Track Severe Weather on mobile